Terminal Aerodrome Forecast
Issued by NWS Wakefield, VA

Home | Current Version | Previous Version | Text Only | Print | Product List | Glossary On
Versions: 1 2 3 4 5 6 7 8 9 10 11 12 13 14 15 16
000
FTUS41 KAKQ 281700
TAFECG
TAF
KECG 281733Z 2818/2918 25012G22KT P6SM SCT060 BKN250
     FM282300 28008KT P6SM SCT250
     FM290300 31011KT P6SM SKC
     FM290900 35008KT P6SM SKC
     FM291500 02008KT P6SM SCT030=

USA.gov is the U.S. government's official web portal to all federal, state and local government web resources and services.